Dryden Regional Airport
CYHD : now visible

Airfield :











YOU CAN JOIN US ON...

 
LOGIN :

Register | Disclaimer

   EN    FR    IT 

 









Legend :    VFR   Marginal VFR   IFR   Intensive IFR   Very Intensive IFR
Visi :
Ceiling :
>= 8 km
>= 3000ft
5 to 8 km
1000 to 3000 ft
1500m to 5 km
500 to 1000 ft
800 to 1500m
200 to 500 ft
< 800m
< 200 ft
Symbols :   Thunderstorms  Fog  Heavy snow  Heavy precipitations  Wind > 20 kt







- Airport Elevation : 1354 ft
- IATA code : YHD


CYHD - Dryden Regional

CURRENT METAR :
  • 190600Z AUTO 25011KT 9SM BKN018 17/16 A2976 RMK SLP081 DENSITY ALT 2000FT

EXPIRED METARs :
  • 190558Z AUTO 25011KT 9SM BKN018 BKN022 17/16 A2976 RMK SLP081 DENSITY ALT 2000FT
  • 190500Z AUTO 25009KT 9SM CLR 17/16 A2973 RMK SLP073 DENSITY ALT 2100FT
  • 190400Z AUTO 24010KT 9SM FEW035 SCT090 17/16 A2971 RMK SLP064 DENSITY ALT 2100FT

TAF AMD TAF CYHD
Valid from the 19 at 05:00 until the 19 at 14:00 UTC


190542Z 1905/1914 25010KT P6SM SCT010 BKN030
TEMPO 1905/1908 5SM -SHRA BR BKN008 OVC020
FM190800 26008KT 5SM -SHRA BR OVC006
TEMPO 1908/1914 P6SM NSW SCT007 OVC012 RMK FCST BASED ON AUTO OBS. NXT FCST BY 190800Z
No reported NOTAMs for that airfield.



MET'MAP, your aeronautical weather chart ! - Copyright ORBIFLY December 2007 - Disclaimer

ORBIFLY MET'MAP TEAM :

Programming & Development : Alexandra Zaïnal
Concept & Development : Baudouin d'Aumeries
Co-Development & Prog : Marc-Olivier Méhu
Technical & hardware support : Manuel Goepfert

Contact : metmap@orbifly.com




SOURCES & CREDITS :

   NOAA       Earth
Advisory